createdAt,value
2023-02-11T00:02:30.179Z,13.10
2023-02-11T00:07:33.986Z,10.93
2023-02-11T00:12:37.853Z,11.10
2023-02-11T00:17:40.452Z,11.03
2023-02-11T00:22:43.734Z,12.60
2023-02-11T00:27:49.610Z,10.43
2023-02-11T00:32:52.360Z,10.85
2023-02-11T00:37:55.454Z,11.55
2023-02-11T00:42:58.555Z,9.73
2023-02-11T00:48:01.106Z,9.05
2023-02-11T00:53:04.477Z,10.35
2023-02-11T00:58:07.134Z,10.95
2023-02-11T01:03:11.146Z,10.90
2023-02-11T01:08:13.972Z,9.27
2023-02-11T01:13:17.966Z,9.07
2023-02-11T01:18:20.704Z,10.13
2023-02-11T01:23:25.151Z,10.05
2023-02-11T01:28:29.990Z,9.57
2023-02-11T01:33:35.132Z,9.95
2023-02-11T01:38:38.268Z,8.82
2023-02-11T01:43:47.235Z,8.95
2023-02-11T01:48:57.954Z,11.95
2023-02-11T01:54:22.437Z,10.93
2023-02-11T01:59:31.952Z,9.68
2023-02-11T02:04:42.430Z,11.35
2023-02-11T02:09:52.281Z,10.40
2023-02-11T02:15:41.159Z,9.90
2023-02-11T02:20:50.902Z,10.10
2023-02-11T02:26:11.666Z,11.23
2023-02-11T02:31:51.348Z,10.93
2023-02-11T02:37:22.022Z,10.95
2023-02-11T02:42:25.418Z,13.88
2023-02-11T02:47:30.186Z,13.00
2023-02-11T02:52:52.270Z,11.48
2023-02-11T02:58:20.020Z,12.63
2023-02-11T03:03:44.380Z,12.52
2023-02-11T03:09:11.585Z,12.50
2023-02-11T03:14:17.165Z,12.75
2023-02-11T03:19:23.961Z,13.07
2023-02-11T03:24:31.826Z,12.25
2023-02-11T03:30:21.216Z,12.07
2023-02-11T03:35:48.873Z,13.45
2023-02-11T03:40:53.435Z,11.77
2023-02-11T03:45:57.200Z,12.73
2023-02-11T03:51:01.931Z,13.95
2023-02-11T04:01:09.856Z,13.37
2023-02-11T04:06:12.514Z,14.60
2023-02-11T04:11:16.324Z,14.38
2023-02-11T04:16:19.088Z,16.60
2023-02-11T04:21:21.601Z,14.57
2023-02-11T04:26:24.268Z,15.90
2023-02-11T04:31:26.944Z,17.85
2023-02-11T04:36:29.564Z,16.85
2023-02-11T04:41:32.185Z,18.13
2023-02-11T04:46:36.047Z,16.38
2023-02-11T04:51:39.083Z,17.02
2023-02-11T04:56:41.871Z,20.15
2023-02-11T05:01:44.700Z,20.95
2023-02-11T05:06:47.302Z,21.20
2023-02-11T05:11:49.946Z,19.55
2023-02-11T05:16:52.642Z,24.13
2023-02-11T05:22:02.489Z,18.80
2023-02-11T05:27:06.291Z,22.38
2023-02-11T05:32:09.141Z,23.08
2023-02-11T05:37:11.870Z,24.42
2023-02-11T05:42:14.883Z,24.63
2023-02-11T05:47:17.447Z,28.63
2023-02-11T05:52:21.237Z,22.73
2023-02-11T05:57:23.887Z,25.50
2023-02-11T06:02:26.541Z,28.67
2023-02-11T06:07:29.240Z,29.23
2023-02-11T06:12:33.116Z,29.23
2023-02-11T06:17:39.230Z,28.80
2023-02-11T06:22:41.867Z,28.30
2023-02-11T06:27:44.461Z,29.30
2023-02-11T06:32:48.453Z,31.63
2023-02-11T06:37:53.980Z,30.85
2023-02-11T06:42:56.841Z,29.52
2023-02-11T06:48:00.609Z,27.25
2023-02-11T06:53:03.406Z,32.05
2023-02-11T06:58:06.186Z,33.30
2023-02-11T07:03:08.892Z,32.03
2023-02-11T07:08:11.504Z,33.08
2023-02-11T07:13:14.147Z,32.45
2023-02-11T07:18:16.925Z,33.10
2023-02-11T07:23:19.638Z,30.83
2023-02-11T07:28:22.281Z,33.33
2023-02-11T07:33:24.884Z,34.70
2023-02-11T07:38:27.700Z,37.15
2023-02-11T07:43:31.743Z,34.40
2023-02-11T07:48:34.916Z,35.85
2023-02-11T07:53:37.879Z,34.33
2023-02-11T07:58:42.294Z,38.65
2023-02-11T08:03:45.417Z,39.13
2023-02-11T08:08:49.086Z,40.67
2023-02-11T08:13:53.328Z,41.53
2023-02-11T08:18:58.129Z,44.33
2023-02-11T08:24:04.252Z,39.53
2023-02-11T08:29:10.629Z,39.28
2023-02-11T08:34:14.478Z,41.72
2023-02-11T08:39:21.301Z,37.97
2023-02-11T08:44:24.578Z,42.50
2023-02-11T08:49:27.195Z,41.17
2023-02-11T08:54:31.349Z,34.42
2023-02-11T08:59:35.296Z,36.28
2023-02-11T09:04:38.942Z,37.20
2023-02-11T09:09:42.534Z,40.55
2023-02-11T09:14:45.703Z,38.17
2023-02-11T09:19:48.847Z,43.25
2023-02-11T09:24:51.593Z,39.22
2023-02-11T09:29:55.222Z,41.03
2023-02-11T09:34:57.954Z,40.38
2023-02-11T09:40:00.660Z,33.63
2023-02-11T09:45:05.309Z,34.78
2023-02-11T09:50:13.876Z,33.08
2023-02-11T09:55:21.739Z,28.70
2023-02-11T10:00:47.549Z,29.52
2023-02-11T10:06:20.012Z,30.50
2023-02-11T10:11:56.802Z,26.20
2023-02-11T10:17:18.090Z,26.40
2023-02-11T10:22:29.524Z,23.15
2023-02-11T10:27:36.527Z,22.55
2023-02-11T10:33:03.580Z,23.27
2023-02-11T10:38:07.800Z,21.73
2023-02-11T10:43:15.593Z,19.73
2023-02-11T10:48:42.224Z,21.25
2023-02-11T10:53:47.459Z,18.33
2023-02-11T10:59:01.092Z,19.52
2023-02-11T11:04:04.015Z,20.40
2023-02-11T11:09:06.826Z,19.88
2023-02-11T11:14:20.189Z,18.90
2023-02-11T11:19:26.440Z,18.60
2023-02-11T11:24:34.551Z,17.85
2023-02-11T11:29:45.193Z,17.10
2023-02-11T11:34:55.657Z,16.05
2023-02-11T11:40:31.906Z,17.98
2023-02-11T11:45:34.494Z,15.60
2023-02-11T11:50:48.453Z,15.15
2023-02-11T11:55:59.828Z,15.40
2023-02-11T12:01:41.422Z,15.60
2023-02-11T12:07:12.747Z,16.55
2023-02-11T12:12:33.935Z,14.82
2023-02-11T12:18:01.511Z,11.77
2023-02-11T12:23:17.542Z,14.13
2023-02-11T12:28:42.027Z,15.77
2023-02-11T12:34:03.366Z,14.25
2023-02-11T12:39:20.888Z,13.70
2023-02-11T12:45:15.102Z,13.50
2023-02-11T12:50:41.391Z,13.93
2023-02-11T12:55:47.159Z,14.30
2023-02-11T13:00:57.254Z,12.90
2023-02-11T13:06:05.712Z,13.00
2023-02-11T13:11:14.412Z,12.88
2023-02-11T13:16:44.115Z,12.40
2023-02-11T13:22:05.422Z,9.40
2023-02-11T13:27:37.385Z,10.43
2023-02-11T13:32:57.088Z,11.70
2023-02-11T13:38:03.575Z,11.90
2023-02-11T13:43:24.171Z,10.73
2023-02-11T13:48:36.293Z,11.93
2023-02-11T13:53:50.725Z,11.30
2023-02-11T13:58:53.638Z,11.25
2023-02-11T14:04:40.963Z,10.50
2023-02-11T14:09:43.708Z,11.45
2023-02-11T14:15:19.059Z,10.13
2023-02-11T14:20:38.242Z,11.35
2023-02-11T14:25:43.803Z,12.07
2023-02-11T14:31:06.768Z,11.18
2023-02-11T14:36:43.676Z,12.77
2023-02-11T14:41:47.717Z,12.02
2023-02-11T14:46:53.439Z,10.48
2023-02-11T14:52:00.485Z,10.07
2023-02-11T14:57:12.499Z,9.77
2023-02-11T15:02:24.454Z,10.52
2023-02-11T15:07:27.418Z,9.45
2023-02-11T15:12:30.119Z,10.15
2023-02-11T15:17:33.214Z,10.38
2023-02-11T15:22:37.461Z,8.93
2023-02-11T15:27:59.251Z,10.82
2023-02-11T15:33:05.443Z,11.52
2023-02-11T15:38:08.198Z,10.57
2023-02-11T15:43:11.976Z,10.32
2023-02-11T15:48:18.859Z,11.93
2023-02-11T15:53:43.133Z,9.82
2023-02-11T15:58:47.827Z,12.02
2023-02-11T16:03:51.972Z,13.23
2023-02-11T16:09:24.544Z,11.60
2023-02-11T16:14:30.158Z,13.45
2023-02-11T16:19:35.586Z,10.48
2023-02-11T16:24:39.247Z,11.52
2023-02-11T16:29:46.159Z,11.87
2023-02-11T16:34:49.371Z,11.40
2023-02-11T16:39:56.659Z,9.68
2023-02-11T16:45:00.318Z,11.40
2023-02-11T16:50:04.477Z,10.60
2023-02-11T16:55:10.213Z,10.90
2023-02-11T17:00:16.364Z,11.20
2023-02-11T17:05:23.149Z,12.75
2023-02-11T17:10:25.921Z,10.75
2023-02-11T17:15:28.646Z,12.35
2023-02-11T17:20:31.288Z,11.40
2023-02-11T17:25:34.282Z,10.95
2023-02-11T17:30:41.203Z,13.50
2023-02-11T17:35:44.082Z,13.13
2023-02-11T17:40:46.712Z,11.00
2023-02-11T17:45:50.487Z,11.90
2023-02-11T17:50:53.545Z,12.87
2023-02-11T17:55:56.952Z,13.43
2023-02-11T18:00:59.953Z,12.65
2023-02-11T18:06:04.499Z,12.13
2023-02-11T18:11:12.382Z,12.75
2023-02-11T18:16:15.968Z,14.65
2023-02-11T18:21:21.023Z,13.82
2023-02-11T18:26:28.210Z,13.45
2023-02-11T18:31:31.317Z,15.55
2023-02-11T18:36:34.608Z,17.23
2023-02-11T18:41:40.170Z,15.55
2023-02-11T18:46:42.903Z,15.35
2023-02-11T18:51:46.189Z,17.35
2023-02-11T18:56:49.522Z,17.42
2023-02-11T19:01:52.405Z,15.95
2023-02-11T19:06:55.241Z,13.63
2023-02-11T19:11:59.890Z,14.75
2023-02-11T19:17:05.643Z,13.73
2023-02-11T19:22:10.536Z,14.75
2023-02-11T19:27:13.577Z,15.65
2023-02-11T19:32:16.445Z,14.65
2023-02-11T19:37:19.350Z,12.75
2023-02-11T19:42:22.190Z,15.35
2023-02-11T19:47:27.954Z,14.73
2023-02-11T19:52:30.808Z,15.45
2023-02-11T19:57:35.302Z,16.45
2023-02-11T20:02:39.673Z,14.35
2023-02-11T20:07:42.554Z,12.13
2023-02-11T20:12:45.154Z,17.30
2023-02-11T20:17:48.050Z,16.52
2023-02-11T20:22:52.219Z,11.68
2023-02-11T20:27:55.089Z,17.70
2023-02-11T20:32:58.672Z,15.20
2023-02-11T20:38:03.122Z,16.73
2023-02-11T20:43:05.885Z,18.85
2023-02-11T20:48:09.560Z,16.60
2023-02-11T20:53:12.608Z,16.95
2023-02-11T20:58:15.418Z,17.08
2023-02-11T21:03:18.328Z,19.17
2023-02-11T21:08:21.029Z,20.20
2023-02-11T21:13:23.661Z,14.95
2023-02-11T21:18:27.710Z,14.48
2023-02-11T21:23:31.974Z,11.52
2023-02-11T21:28:35.245Z,13.50
2023-02-11T21:33:38.096Z,14.30
2023-02-11T21:38:41.958Z,15.65
2023-02-11T21:43:45.048Z,17.15
2023-02-11T21:48:49.494Z,15.63
2023-02-11T21:53:59.698Z,17.98
2023-02-11T21:59:03.106Z,16.83
2023-02-11T22:04:06.807Z,14.50
2023-02-11T22:09:11.162Z,15.00
2023-02-11T22:14:13.742Z,12.70
2023-02-11T22:19:16.396Z,14.00
2023-02-11T22:24:18.999Z,17.73
2023-02-11T22:29:21.669Z,13.93
2023-02-11T22:34:24.290Z,14.65
2023-02-11T22:39:26.878Z,17.63
2023-02-11T22:44:29.475Z,15.15
2023-02-11T22:49:33.350Z,10.77
2023-02-11T22:54:36.351Z,18.40
2023-02-11T22:59:38.942Z,18.88
2023-02-11T23:05:00.009Z,21.48
2023-02-11T23:10:02.720Z,15.65
2023-02-11T23:15:05.511Z,15.02
2023-02-11T23:20:08.645Z,19.83
2023-02-11T23:25:11.211Z,18.02
2023-02-11T23:30:14.310Z,15.05
2023-02-11T23:35:23.022Z,13.93
2023-02-11T23:40:31.121Z,17.48
2023-02-11T23:45:33.704Z,13.40
2023-02-11T23:50:39.616Z,13.38
2023-02-11T23:55:43.371Z,12.95
